createdAt,value
2022-08-23T00:01:43.515Z,24.90
2022-08-23T00:04:14.533Z,24.90
2022-08-23T00:06:49.301Z,24.80
2022-08-23T00:09:18.889Z,24.80
2022-08-23T00:11:49.512Z,24.80
2022-08-23T00:14:22.375Z,24.80
2022-08-23T00:16:51.546Z,24.80
2022-08-23T00:19:21.399Z,24.80
2022-08-23T00:21:52.939Z,24.70
2022-08-23T00:24:22.196Z,24.70
2022-08-23T00:26:57.576Z,24.70
2022-08-23T00:29:29.008Z,24.60
2022-08-23T00:31:57.716Z,24.60
2022-08-23T00:34:27.159Z,24.60
2022-08-23T00:36:57.522Z,24.60
2022-08-23T00:39:26.180Z,24.60
2022-08-23T00:41:58.903Z,24.50
2022-08-23T00:44:49.948Z,24.50
2022-08-23T00:47:37.533Z,24.50
2022-08-23T00:50:23.903Z,24.50
2022-08-23T00:53:02.107Z,24.50
2022-08-23T00:55:31.402Z,24.40
2022-08-23T00:58:00.159Z,24.50
2022-08-23T01:00:29.231Z,24.40
2022-08-23T01:02:58.225Z,24.40
2022-08-23T01:05:35.635Z,24.40
2022-08-23T01:08:05.605Z,24.40
2022-08-23T01:10:39.611Z,24.30
2022-08-23T01:13:12.484Z,24.30
2022-08-23T01:15:47.230Z,24.30
2022-08-23T01:18:19.183Z,24.30
2022-08-23T01:20:54.536Z,24.30
2022-08-23T01:23:32.333Z,24.20
2022-08-23T01:26:00.819Z,24.20
2022-08-23T01:28:29.197Z,24.30
2022-08-23T01:30:57.507Z,24.20
2022-08-23T01:33:26.045Z,24.20
2022-08-23T01:35:57.205Z,24.20
2022-08-23T01:38:28.187Z,24.20
2022-08-23T01:41:03.199Z,24.10
2022-08-23T01:43:31.606Z,24.10
2022-08-23T01:45:59.783Z,24.10
2022-08-23T01:48:28.592Z,24.10
2022-08-23T01:50:57.611Z,24.10
2022-08-23T01:53:26.022Z,24.10
2022-08-23T01:55:54.427Z,24.00
2022-08-23T01:58:24.459Z,24.00
2022-08-23T02:00:52.775Z,24.00
2022-08-23T02:03:21.841Z,24.00
2022-08-23T02:08:41.184Z,23.90
2022-08-23T02:11:11.002Z,23.90
2022-08-23T02:13:42.873Z,23.90
2022-08-23T02:16:15.036Z,23.90
2022-08-23T02:18:44.513Z,23.80
2022-08-23T02:21:13.458Z,23.80
2022-08-23T02:23:41.819Z,23.80
2022-08-23T02:26:10.603Z,23.70
2022-08-23T02:28:39.124Z,23.70
2022-08-23T02:31:09.531Z,23.70
2022-08-23T02:33:40.386Z,23.70
2022-08-23T02:36:09.754Z,23.70
2022-08-23T02:38:38.266Z,23.70
2022-08-23T02:41:07.547Z,23.60
2022-08-23T02:43:40.937Z,23.60
2022-08-23T02:46:11.512Z,23.60
2022-08-23T02:48:39.908Z,23.60
2022-08-23T02:51:10.727Z,23.60
2022-08-23T02:53:39.621Z,23.60
2022-08-23T02:56:21.195Z,23.60
2022-08-23T02:58:54.705Z,23.60
2022-08-23T03:01:28.827Z,23.50
2022-08-23T03:04:03.602Z,23.50
2022-08-23T03:06:32.341Z,23.50
2022-08-23T03:09:00.993Z,23.50
2022-08-23T03:11:29.402Z,23.50
2022-08-23T03:13:57.743Z,23.50
2022-08-23T03:16:28.180Z,23.40
2022-08-23T03:18:56.554Z,23.40
2022-08-23T03:21:25.333Z,23.40
2022-08-23T03:23:53.823Z,23.40
2022-08-23T03:26:23.023Z,23.40
2022-08-23T03:28:51.846Z,23.40
2022-08-23T03:31:23.750Z,23.40
2022-08-23T03:34:05.999Z,23.40
2022-08-23T03:36:35.820Z,23.30
2022-08-23T03:39:06.114Z,23.40
2022-08-23T03:41:34.620Z,23.30
2022-08-23T03:44:03.605Z,23.30
2022-08-23T03:46:35.285Z,23.30
2022-08-23T03:49:06.843Z,23.30
2022-08-23T03:51:44.927Z,23.30
2022-08-23T03:54:13.484Z,23.30
2022-08-23T03:56:53.209Z,23.30
2022-08-23T03:59:21.823Z,23.20
2022-08-23T04:01:50.475Z,23.20
2022-08-23T04:04:20.327Z,23.20
2022-08-23T04:07:20.691Z,23.20
2022-08-23T04:09:54.948Z,23.10
2022-08-23T04:12:25.269Z,23.10
2022-08-23T04:14:53.800Z,23.20
2022-08-23T04:17:23.539Z,23.10
2022-08-23T04:19:54.966Z,23.10
2022-08-23T04:22:23.903Z,23.10
2022-08-23T04:24:52.767Z,23.10
2022-08-23T04:27:23.042Z,23.00
2022-08-23T04:29:51.422Z,23.10
2022-08-23T04:32:28.537Z,23.00
2022-08-23T04:35:00.379Z,23.00
2022-08-23T04:37:29.176Z,23.00
2022-08-23T04:40:15.790Z,23.00
2022-08-23T04:42:44.488Z,23.00
2022-08-23T04:45:14.201Z,23.00
2022-08-23T04:47:46.730Z,23.00
2022-08-23T04:50:16.985Z,22.90
2022-08-23T04:53:11.820Z,22.90
2022-08-23T04:55:51.775Z,22.90
2022-08-23T04:58:20.296Z,22.90
2022-08-23T05:00:51.649Z,22.90
2022-08-23T05:03:24.957Z,22.90
2022-08-23T05:05:55.456Z,22.90
2022-08-23T05:08:29.157Z,22.90
2022-08-23T05:11:01.437Z,22.90
2022-08-23T05:13:31.224Z,22.90
2022-08-23T05:16:04.820Z,22.80
2022-08-23T05:18:36.266Z,22.90
2022-08-23T05:21:06.420Z,22.90
2022-08-23T05:23:35.289Z,22.90
2022-08-23T05:26:11.650Z,22.80
2022-08-23T05:28:45.543Z,22.90
2022-08-23T05:31:19.590Z,22.90
2022-08-23T05:33:53.362Z,22.90
2022-08-23T05:36:56.009Z,22.90
2022-08-23T05:39:37.428Z,22.90
2022-08-23T05:42:09.528Z,22.90
2022-08-23T05:44:38.823Z,22.90
2022-08-23T05:47:11.752Z,22.90
2022-08-23T05:50:08.949Z,22.90
2022-08-23T05:52:40.707Z,22.90
2022-08-23T05:55:09.602Z,22.90
2022-08-23T05:57:50.166Z,22.90
2022-08-23T06:00:18.662Z,22.90
2022-08-23T06:02:56.814Z,22.90
2022-08-23T06:05:25.525Z,22.90
2022-08-23T06:07:55.557Z,23.00
2022-08-23T06:10:26.637Z,23.00
2022-08-23T06:13:17.221Z,23.00
2022-08-23T06:15:46.083Z,23.00
2022-08-23T06:18:14.546Z,23.00
2022-08-23T06:20:44.215Z,23.00
2022-08-23T06:23:20.383Z,23.00
2022-08-23T06:25:49.016Z,23.00
2022-08-23T06:28:18.833Z,23.00
2022-08-23T06:30:58.329Z,23.00
2022-08-23T06:33:34.323Z,23.00
2022-08-23T06:36:21.276Z,23.00
2022-08-23T06:39:22.178Z,23.10
2022-08-23T06:42:37.882Z,23.10
2022-08-23T06:45:07.373Z,23.00
2022-08-23T06:47:41.816Z,23.10
2022-08-23T06:50:11.830Z,23.10
2022-08-23T06:52:58.842Z,23.10
2022-08-23T06:55:47.241Z,23.10
2022-08-23T06:58:36.076Z,23.10
2022-08-23T07:01:45.194Z,23.10
2022-08-23T07:04:23.065Z,23.10
2022-08-23T07:07:11.989Z,23.10
2022-08-23T07:09:41.723Z,23.10
2022-08-23T07:12:12.149Z,23.10
2022-08-23T07:14:44.202Z,23.10
2022-08-23T07:17:14.560Z,23.20
2022-08-23T07:19:44.225Z,23.20
2022-08-23T07:22:15.621Z,23.20
2022-08-23T07:24:44.503Z,23.20
2022-08-23T07:27:14.341Z,23.30
2022-08-23T07:29:53.506Z,23.20
2022-08-23T07:32:22.259Z,23.20
2022-08-23T07:34:54.771Z,23.20
2022-08-23T07:37:25.085Z,23.30
2022-08-23T07:39:57.432Z,23.30
2022-08-23T07:42:28.703Z,23.30
2022-08-23T07:44:57.614Z,23.30
2022-08-23T07:47:29.699Z,23.30
2022-08-23T07:50:00.568Z,23.30
2022-08-23T07:52:30.567Z,23.30
2022-08-23T07:54:59.449Z,23.30
2022-08-23T07:57:50.321Z,23.30
2022-08-23T08:00:49.801Z,23.30
2022-08-23T08:03:49.720Z,23.40
2022-08-23T08:06:29.362Z,23.40
2022-08-23T08:08:59.050Z,23.40
2022-08-23T08:11:34.583Z,23.40
2022-08-23T08:14:08.599Z,23.40
2022-08-23T08:16:44.021Z,23.50
2022-08-23T08:19:16.957Z,23.50
2022-08-23T08:22:06.450Z,23.50
2022-08-23T08:24:54.835Z,23.50
2022-08-23T08:27:23.321Z,23.50
2022-08-23T08:29:54.009Z,23.50
2022-08-23T08:32:22.425Z,23.50
2022-08-23T08:34:51.044Z,23.50
2022-08-23T08:37:22.016Z,23.50
2022-08-23T08:39:50.487Z,23.60
2022-08-23T08:42:35.090Z,23.60
2022-08-23T08:45:10.583Z,23.60
2022-08-23T08:47:48.216Z,23.60
2022-08-23T08:50:24.356Z,23.60
2022-08-23T08:53:02.017Z,23.60
2022-08-23T08:56:03.907Z,23.70
2022-08-23T08:58:49.089Z,23.60
2022-08-23T09:01:20.549Z,23.70
2022-08-23T09:03:50.957Z,23.70
2022-08-23T09:06:26.706Z,23.70
2022-08-23T09:09:09.876Z,23.70
2022-08-23T09:11:49.215Z,23.70
2022-08-23T09:14:47.448Z,23.70
2022-08-23T09:17:23.526Z,23.80
2022-08-23T09:19:54.069Z,23.80
2022-08-23T09:22:31.505Z,23.80
2022-08-23T09:25:01.509Z,23.80
2022-08-23T09:27:40.146Z,23.80
2022-08-23T09:30:10.531Z,23.80
2022-08-23T09:32:44.033Z,23.90
2022-08-23T09:35:19.661Z,23.90
2022-08-23T09:38:00.766Z,23.90
2022-08-23T09:40:38.919Z,23.90
2022-08-23T09:43:16.235Z,23.90
2022-08-23T09:45:57.803Z,24.00
2022-08-23T09:48:38.326Z,24.00
2022-08-23T09:51:16.748Z,24.00
2022-08-23T09:53:54.476Z,24.00
2022-08-23T09:56:27.450Z,24.00
2022-08-23T09:58:56.568Z,24.00
2022-08-23T10:01:39.518Z,24.00
2022-08-23T10:04:17.980Z,24.10
2022-08-23T10:06:48.038Z,24.10
2022-08-23T10:09:27.750Z,24.10
2022-08-23T10:11:58.171Z,24.10
2022-08-23T10:14:30.612Z,24.10
2022-08-23T10:17:16.736Z,24.20
2022-08-23T10:19:56.755Z,24.20
2022-08-23T10:22:28.728Z,24.20
2022-08-23T10:25:27.469Z,24.20
2022-08-23T10:28:21.758Z,24.20
2022-08-23T10:30:56.863Z,24.30
2022-08-23T10:33:37.272Z,24.30
2022-08-23T10:36:15.201Z,24.30
2022-08-23T10:38:47.777Z,24.30
2022-08-23T10:41:34.898Z,24.40
2022-08-23T10:44:24.664Z,24.40
2022-08-23T10:47:27.572Z,24.40
2022-08-23T10:50:00.225Z,24.50
2022-08-23T10:52:35.753Z,24.50
2022-08-23T10:55:17.470Z,24.50
2022-08-23T10:57:48.939Z,24.50
2022-08-23T11:00:20.955Z,24.50
2022-08-23T11:02:59.770Z,24.60
2022-08-23T11:05:38.865Z,24.60
2022-08-23T11:08:35.035Z,24.60
2022-08-23T11:11:27.151Z,24.70
2022-08-23T11:13:55.712Z,24.70
2022-08-23T11:16:31.209Z,24.70
2022-08-23T11:19:02.457Z,24.70
2022-08-23T11:21:48.840Z,24.80
2022-08-23T11:24:51.746Z,24.80
2022-08-23T11:27:38.241Z,24.80
2022-08-23T11:30:45.046Z,24.90
2022-08-23T11:33:21.734Z,24.90
2022-08-23T11:35:52.892Z,24.90
2022-08-23T11:38:56.725Z,25.00
2022-08-23T11:41:28.715Z,25.00
2022-08-23T11:44:22.287Z,25.00
2022-08-23T11:47:00.577Z,25.00
2022-08-23T11:50:04.348Z,25.10
2022-08-23T11:53:11.066Z,25.10
2022-08-23T11:56:08.508Z,25.10
2022-08-23T11:59:08.991Z,25.20
2022-08-23T12:01:40.290Z,25.20
2022-08-23T12:04:15.188Z,25.30
2022-08-23T12:06:50.852Z,25.40
2022-08-23T12:09:58.781Z,25.50
2022-08-23T12:12:38.447Z,25.60
2022-08-23T12:15:13.223Z,25.60
2022-08-23T12:18:19.250Z,25.60
2022-08-23T12:20:51.752Z,25.70
2022-08-23T12:23:22.153Z,25.70
2022-08-23T12:26:01.261Z,25.80
2022-08-23T12:28:42.272Z,25.80
2022-08-23T12:31:23.208Z,25.80
2022-08-23T12:34:02.050Z,25.80
2022-08-23T12:36:38.257Z,25.90
2022-08-23T12:39:09.030Z,25.90
2022-08-23T12:41:52.708Z,25.90
2022-08-23T12:44:22.570Z,26.00
2022-08-23T12:46:53.290Z,26.10
2022-08-23T12:49:27.743Z,26.10
2022-08-23T12:52:00.294Z,26.10
2022-08-23T12:54:40.152Z,26.10
2022-08-23T12:57:13.378Z,26.10
2022-08-23T12:59:46.948Z,26.10
2022-08-23T13:02:25.134Z,26.20
2022-08-23T13:04:56.405Z,26.20
2022-08-23T13:07:28.856Z,26.20
2022-08-23T13:09:57.857Z,26.20
2022-08-23T13:12:28.109Z,26.20
2022-08-23T13:15:01.423Z,26.20
2022-08-23T13:17:39.686Z,26.20
2022-08-23T13:20:28.878Z,26.30
2022-08-23T13:23:03.305Z,26.30
2022-08-23T13:25:35.396Z,26.30
2022-08-23T13:28:07.425Z,26.30
2022-08-23T13:30:39.118Z,26.40
2022-08-23T13:33:23.496Z,26.40
2022-08-23T13:36:06.511Z,26.40
2022-08-23T13:38:43.309Z,26.40
2022-08-23T13:41:27.739Z,26.50
2022-08-23T13:43:56.406Z,26.50
2022-08-23T13:46:27.857Z,26.50
2022-08-23T13:49:01.452Z,26.50
2022-08-23T13:51:32.309Z,26.50
2022-08-23T13:54:02.863Z,26.50
2022-08-23T13:56:35.973Z,26.60
2022-08-23T13:59:16.110Z,26.60
2022-08-23T14:01:45.283Z,26.60
2022-08-23T14:04:16.097Z,26.60
2022-08-23T14:06:44.556Z,26.60
2022-08-23T14:09:18.130Z,26.60
2022-08-23T14:11:49.237Z,26.70
2022-08-23T14:14:17.848Z,26.70
2022-08-23T14:16:46.304Z,26.70
2022-08-23T14:19:16.569Z,26.70
2022-08-23T14:22:05.753Z,26.70
2022-08-23T14:24:34.057Z,26.80
2022-08-23T14:27:02.860Z,26.80
2022-08-23T14:29:31.438Z,26.80
2022-08-23T14:32:00.990Z,26.90
2022-08-23T14:34:31.605Z,26.90
2022-08-23T14:39:49.155Z,27.00
2022-08-23T14:42:20.570Z,27.00
2022-08-23T14:44:48.936Z,27.10
2022-08-23T14:47:17.743Z,27.10
2022-08-23T14:49:49.019Z,27.10
2022-08-23T14:52:20.405Z,27.20
2022-08-23T14:54:49.603Z,27.20
2022-08-23T14:57:18.754Z,27.30
2022-08-23T14:59:47.313Z,27.30
2022-08-23T15:02:20.398Z,27.30
2022-08-23T15:04:50.195Z,27.40
2022-08-23T15:07:19.715Z,27.40
2022-08-23T15:09:49.165Z,27.50
2022-08-23T15:15:09.319Z,27.60
2022-08-23T15:17:47.870Z,27.60
2022-08-23T15:20:17.542Z,27.60
2022-08-23T15:22:55.764Z,27.60
2022-08-23T15:25:25.660Z,27.60
2022-08-23T15:27:54.088Z,27.70
2022-08-23T15:30:24.101Z,27.70
2022-08-23T15:32:56.470Z,27.70
2022-08-23T15:35:28.099Z,27.80
2022-08-23T15:37:57.941Z,27.90
2022-08-23T15:40:27.208Z,27.90
2022-08-23T15:42:55.807Z,28.00
2022-08-23T15:45:24.581Z,28.10
2022-08-23T15:47:54.963Z,28.20
2022-08-23T15:50:27.518Z,28.30
2022-08-23T15:52:56.095Z,28.40
2022-08-23T15:55:26.087Z,28.60
2022-08-23T15:57:55.510Z,28.70
2022-08-23T16:00:25.836Z,28.90
2022-08-23T16:03:18.897Z,29.00
2022-08-23T16:05:48.124Z,29.20
2022-08-23T16:08:21.061Z,29.30
2022-08-23T16:10:49.416Z,29.40
2022-08-23T16:13:17.976Z,29.50
2022-08-23T16:15:46.677Z,29.50
2022-08-23T16:18:15.654Z,29.50
2022-08-23T16:20:46.308Z,29.60
2022-08-23T16:23:14.815Z,29.60
2022-08-23T16:25:43.570Z,29.60
2022-08-23T16:28:11.830Z,29.60
2022-08-23T16:30:40.156Z,29.60
2022-08-23T16:33:08.598Z,29.60
2022-08-23T16:35:37.514Z,29.60
2022-08-23T16:38:07.268Z,29.60
2022-08-23T16:40:35.734Z,29.60
2022-08-23T16:43:04.402Z,29.60
2022-08-23T16:45:32.790Z,29.60
2022-08-23T16:48:01.517Z,29.60
2022-08-23T16:50:32.694Z,29.50
2022-08-23T16:53:06.499Z,29.50
2022-08-23T16:55:37.686Z,29.50
2022-08-23T16:58:07.753Z,29.40
2022-08-23T17:00:36.798Z,29.30
2022-08-23T17:03:06.281Z,29.30
2022-08-23T17:05:34.840Z,29.30
2022-08-23T17:08:03.498Z,29.20
2022-08-23T17:10:33.708Z,29.20
2022-08-23T17:13:04.004Z,29.20
2022-08-23T17:15:35.411Z,29.20
2022-08-23T17:18:04.144Z,29.10
2022-08-23T17:20:36.546Z,29.10
2022-08-23T17:23:05.756Z,29.10
2022-08-23T17:25:34.876Z,29.10
2022-08-23T17:28:05.717Z,29.10
2022-08-23T17:30:34.465Z,29.10
2022-08-23T17:33:03.915Z,29.00
2022-08-23T17:35:34.044Z,29.00
2022-08-23T17:38:03.143Z,28.90
2022-08-23T17:40:34.276Z,28.90
2022-08-23T17:43:05.548Z,28.80
2022-08-23T17:45:41.737Z,28.80
2022-08-23T17:48:11.119Z,28.70
2022-08-23T17:50:39.506Z,28.70
2022-08-23T17:53:08.755Z,28.70
2022-08-23T17:55:37.697Z,28.60
2022-08-23T17:58:07.980Z,28.60
2022-08-23T18:00:38.586Z,28.50
2022-08-23T18:03:08.014Z,28.50
2022-08-23T18:05:41.151Z,28.40
2022-08-23T18:08:10.169Z,28.40
2022-08-23T18:10:38.481Z,28.30
2022-08-23T18:13:08.285Z,28.30
2022-08-23T18:15:37.576Z,28.30
2022-08-23T18:18:06.112Z,28.20
2022-08-23T18:20:34.872Z,28.10
2022-08-23T18:23:06.503Z,28.20
2022-08-23T18:25:34.886Z,28.10
2022-08-23T18:28:09.766Z,28.10
2022-08-23T18:30:46.503Z,28.10
2022-08-23T18:33:15.834Z,28.00
2022-08-23T18:35:45.064Z,27.70
2022-08-23T18:38:13.950Z,27.90
2022-08-23T18:40:48.644Z,27.90
2022-08-23T18:43:19.518Z,27.90
2022-08-23T18:45:51.436Z,27.90
2022-08-23T18:48:20.487Z,27.80
2022-08-23T18:50:49.770Z,27.80
2022-08-23T18:53:20.044Z,27.70
2022-08-23T18:55:49.949Z,27.80
2022-08-23T18:58:19.551Z,27.70
2022-08-23T19:00:52.132Z,27.70
2022-08-23T19:03:20.705Z,27.60
2022-08-23T19:05:49.566Z,27.60
2022-08-23T19:08:19.371Z,27.60
2022-08-23T19:10:47.859Z,27.50
2022-08-23T19:13:16.939Z,27.50
2022-08-23T19:15:45.487Z,27.50
2022-08-23T19:18:15.753Z,27.50
2022-08-23T19:20:44.149Z,27.40
2022-08-23T19:23:13.538Z,27.40
2022-08-23T19:25:45.154Z,27.40
2022-08-23T19:28:13.832Z,27.30
2022-08-23T19:30:43.888Z,27.30
2022-08-23T19:33:12.138Z,27.30
2022-08-23T19:35:42.292Z,27.30
2022-08-23T19:38:11.097Z,27.50
2022-08-23T19:40:39.812Z,27.20
2022-08-23T19:43:09.110Z,27.20
2022-08-23T19:45:38.675Z,27.20
2022-08-23T19:48:07.298Z,27.20
2022-08-23T19:50:35.580Z,27.20
2022-08-23T19:53:05.476Z,27.10
2022-08-23T19:55:34.638Z,27.10
2022-08-23T19:58:02.869Z,27.10
2022-08-23T20:00:31.906Z,27.00
2022-08-23T20:03:00.286Z,27.00
2022-08-23T20:05:28.655Z,27.00
2022-08-23T20:07:57.154Z,27.00
2022-08-23T20:10:27.047Z,27.00
2022-08-23T20:12:55.313Z,27.00
2022-08-23T20:15:23.525Z,27.00
2022-08-23T20:17:52.262Z,26.90
2022-08-23T20:20:20.630Z,26.90
2022-08-23T20:23:06.490Z,26.90
2022-08-23T20:25:36.601Z,26.90
2022-08-23T20:28:08.166Z,26.90
2022-08-23T20:30:37.548Z,26.80
2022-08-23T20:33:05.931Z,26.80
2022-08-23T20:35:34.145Z,26.80
2022-08-23T20:38:04.449Z,26.80
2022-08-23T20:40:33.336Z,26.80
2022-08-23T20:43:03.297Z,26.70
2022-08-23T20:45:32.741Z,26.70
2022-08-23T20:48:01.229Z,26.70
2022-08-23T20:50:29.670Z,26.70
2022-08-23T20:52:57.988Z,26.70
2022-08-23T20:55:26.345Z,26.70
2022-08-23T20:57:55.116Z,26.60
2022-08-23T21:00:24.981Z,26.60
2022-08-23T21:02:53.416Z,26.60
2022-08-23T21:05:21.676Z,26.60
2022-08-23T21:07:50.441Z,26.60
2022-08-23T21:10:18.898Z,26.60
2022-08-23T21:12:48.335Z,26.50
2022-08-23T21:15:16.616Z,26.50
2022-08-23T21:17:46.728Z,26.50
2022-08-23T21:20:16.096Z,26.50
2022-08-23T21:22:44.437Z,26.40
2022-08-23T21:25:12.828Z,26.50
2022-08-23T21:27:41.375Z,26.50
2022-08-23T21:30:11.107Z,26.50
2022-08-23T21:32:40.190Z,26.40
2022-08-23T21:35:11.358Z,26.40
2022-08-23T21:37:39.854Z,26.40
2022-08-23T21:40:09.194Z,26.40
2022-08-23T21:42:37.560Z,26.40
2022-08-23T21:45:06.969Z,26.40
2022-08-23T21:47:35.190Z,26.40
2022-08-23T21:50:03.665Z,26.30
2022-08-23T21:52:33.252Z,26.30
2022-08-23T21:55:01.756Z,26.30
2022-08-23T21:57:31.301Z,26.30
2022-08-23T21:59:59.540Z,26.30
2022-08-23T22:02:28.148Z,26.30
2022-08-23T22:04:56.513Z,26.20
2022-08-23T22:07:24.726Z,26.20
2022-08-23T22:09:54.308Z,26.20
2022-08-23T22:12:24.995Z,26.20
2022-08-23T22:14:53.766Z,26.20
2022-08-23T22:17:22.062Z,26.20
2022-08-23T22:19:51.577Z,26.20
2022-08-23T22:22:19.788Z,26.10
2022-08-23T22:24:48.101Z,26.10
2022-08-23T22:27:18.553Z,26.10
2022-08-23T22:29:46.843Z,26.10
2022-08-23T22:32:15.145Z,26.10
2022-08-23T22:34:43.451Z,26.10
2022-08-23T22:37:11.959Z,26.00
2022-08-23T22:39:40.421Z,26.00
2022-08-23T22:42:09.963Z,26.00
2022-08-23T22:44:39.936Z,26.00
2022-08-23T22:47:08.268Z,26.00
2022-08-23T22:49:36.544Z,26.00
2022-08-23T22:52:05.888Z,26.00
2022-08-23T22:54:34.369Z,26.00
2022-08-23T22:57:02.708Z,26.00
2022-08-23T22:59:32.390Z,25.90
2022-08-23T23:02:04.162Z,25.90
2022-08-23T23:04:34.009Z,25.90
2022-08-23T23:07:02.915Z,25.90
2022-08-23T23:09:31.553Z,25.90
2022-08-23T23:11:59.804Z,25.90
2022-08-23T23:14:28.583Z,25.90
2022-08-23T23:16:57.101Z,25.80
2022-08-23T23:19:45.726Z,25.80
2022-08-23T23:22:14.250Z,25.80
2022-08-23T23:24:42.496Z,25.80
2022-08-23T23:27:10.770Z,25.80
2022-08-23T23:29:38.975Z,25.80
2022-08-23T23:32:07.866Z,25.80
2022-08-23T23:34:38.112Z,25.70
2022-08-23T23:37:06.529Z,25.70
2022-08-23T23:39:34.806Z,25.70
2022-08-23T23:42:03.086Z,25.70
2022-08-23T23:44:32.114Z,25.70
2022-08-23T23:47:01.886Z,25.60
2022-08-23T23:49:32.215Z,25.60
2022-08-23T23:52:04.711Z,25.60
2022-08-23T23:54:33.958Z,25.60
2022-08-23T23:57:02.729Z,25.60
2022-08-23T23:59:31.109Z,25.60
